Hiwassee Observed Data For Previous 48 Hours

Caption
Day and Hour Reservoir Elevation (behind dam)* Tailwater Elevation (below dam)* Average Hourly Discharge*
9/20/2017 2 AM EDT 1,506.03 1,277.21 -999
9/20/2017 3 AM EDT 1,506.11 1,276.49 -999
9/20/2017 4 AM EDT 1,506.20 1,276.35 -999
9/20/2017 5 AM EDT 1,506.30 1,276.14 -999
9/20/2017 6 AM EDT 1,506.37 1,275.85 -999
9/20/2017 7 AM EDT 1,506.45 1,276.04 -999
9/20/2017 8 AM EDT 1,506.49 1,275.81 0
9/20/2017 9 AM EDT 1,506.49 1,276.14 0
9/20/2017 10 AM EDT 1,506.47 1,276.09 0
9/20/2017 11 AM EDT 1,506.45 1,275.77 0
9/20/2017 12 PM EDT 1,506.47 1,275.42 0
9/20/2017 1 PM EDT 1,506.47 1,275.85 3,533
9/20/2017 2 PM EDT 1,506.42 1,275.94 3,751
9/20/2017 3 PM EDT 1,506.35 1,277.18 7,733
9/20/2017 4 PM EDT 1,506.25 1,277.45 8,137
9/20/2017 5 PM EDT 1,506.13 1,277.73 8,155
9/20/2017 6 PM EDT 1,506.01 1,277.96 8,116
9/20/2017 7 PM EDT 1,505.89 1,278.27 8,127
9/20/2017 8 PM EDT 1,505.76 1,278.58 8,121
9/20/2017 9 PM EDT 1,505.64 1,278.06 6,823
9/20/2017 10 PM EDT 1,505.59 1,277.57 90
9/20/2017 11 PM EDT 1,505.59 1,278.10 0
9/21/2017 12 AM EDT 1,505.59 1,277.76 0
9/21/2017 1 AM EDT 1,505.64 1,277.96 0
9/21/2017 2 AM EDT 1,505.69 1,276.83 -999
9/21/2017 3 AM EDT 1,505.78 1,277.06 -999
9/21/2017 4 AM EDT 1,505.89 1,276.66 -999
9/21/2017 5 AM EDT 1,506.03 1,276.36 -999
9/21/2017 6 AM EDT 1,506.16 1,275.86 -999
9/21/2017 7 AM EDT 1,506.25 1,276.47 -999
9/21/2017 8 AM EDT 1,506.30 1,276.07 0
9/21/2017 9 AM EDT 1,506.32 1,276.08 0
9/21/2017 10 AM EDT 1,506.33 1,276.32 0
9/21/2017 11 AM EDT 1,506.34 1,276.16 0
9/21/2017 12 PM EDT 1,506.34 1,275.94 0
9/21/2017 1 PM EDT 1,506.34 1,276.00 770
9/21/2017 2 PM EDT 1,506.32 1,275.94 3,755
9/21/2017 3 PM EDT 1,506.25 1,277.25 7,655
9/21/2017 4 PM EDT 1,506.15 1,277.63 8,142
9/21/2017 5 PM EDT 1,506.03 1,277.83 8,126
9/21/2017 6 PM EDT 1,505.91 1,278.09 8,146
9/21/2017 7 PM EDT 1,505.78 1,278.36 8,124
9/21/2017 8 PM EDT 1,505.64 1,278.70 8,143
9/21/2017 9 PM EDT 1,505.56 1,277.71 3,893
9/21/2017 10 PM EDT 1,505.51 1,277.51 85
9/21/2017 11 PM EDT 1,505.51 1,277.93 0

Elevations are in feet above sea level. Discharges are in cubic feet per second and are reported at the end of the hour.